Time;durP1;ratioP1;P1;durP2;ratioP2;P2;SDS_P1;SDS_P2;PMS_P1;PMS_P2;Temp;Humidity;BMP_temperature;BMP_pressure;BME280_temperature;BME280_humidity;BME280_pressure;Samples;Min_cycle;Max_cycle;Signal;HPM_P1;HPM_P2
2023/06/10 00:00:50;;;;;;;8.48;5.10;;;20.20;99.90;;;;;;5032621;28;20209;-78
2023/06/10 00:03:17;;;;;;;10.23;5.80;;;20.10;99.90;;;;;;5032086;28;20223;-78
2023/06/10 00:05:44;;;;;;;8.23;4.97;;;20.10;99.90;;;;;;5032278;28;20202;-77
2023/06/10 00:08:11;;;;;;;10.32;5.28;;;20.00;99.90;;;;;;5032071;28;20203;-77
2023/06/10 00:10:40;;;;;;;7.10;5.13;;;20.00;99.90;;;;;;5031908;28;20562;-77
2023/06/10 00:13:08;;;;;;;7.53;4.65;;;20.00;99.90;;;;;;5032146;28;20205;-80
2023/06/10 00:15:36;;;;;;;7.32;4.93;;;20.00;99.90;;;;;;5031707;28;20199;-77
2023/06/10 00:18:05;;;;;;;6.55;4.82;;;20.00;99.90;;;;;;5032157;28;20191;-79
2023/06/10 00:20:32;;;;;;;10.13;4.78;;;20.00;99.90;;;;;;5032627;28;20257;-80
2023/06/10 00:23:01;;;;;;;7.88;5.40;;;20.00;99.90;;;;;;5031186;28;20234;-80
2023/06/10 00:25:28;;;;;;;8.95;5.90;;;19.90;99.90;;;;;;5031625;28;20206;-79
2023/06/10 00:27:55;;;;;;;8.25;5.20;;;19.90;99.90;;;;;;5032252;28;20205;-81
2023/06/10 00:30:22;;;;;;;6.50;5.30;;;19.80;99.90;;;;;;5031695;28;20290;-80
2023/06/10 00:32:49;;;;;;;9.55;5.35;;;19.70;99.90;;;;;;5032159;28;20797;-79
2023/06/10 00:35:18;;;;;;;10.93;5.32;;;19.70;99.90;;;;;;5031623;28;20639;-79
2023/06/10 00:37:45;;;;;;;8.70;4.95;;;19.70;99.90;;;;;;5031053;28;20229;-78
2023/06/10 00:40:13;;;;;;;8.23;5.38;;;19.60;99.90;;;;;;5031604;28;20195;-79
2023/06/10 00:42:39;;;;;;;9.40;5.80;;;19.60;99.90;;;;;;5031828;28;20225;-81
2023/06/10 00:45:07;;;;;;;7.90;5.45;;;19.60;99.90;;;;;;5031180;28;20198;-77
2023/06/10 00:47:35;;;;;;;8.40;5.22;;;19.60;99.90;;;;;;5031939;28;20195;-79
2023/06/10 00:50:03;;;;;;;7.43;4.75;;;19.50;99.90;;;;;;5031414;28;20650;-77
2023/06/10 00:52:31;;;;;;;8.13;4.72;;;19.50;99.90;;;;;;5031460;28;20203;-78
2023/06/10 00:54:59;;;;;;;9.68;4.93;;;19.40;99.90;;;;;;5031695;28;20293;-81
2023/06/10 00:57:26;;;;;;;7.90;5.10;;;19.40;99.90;;;;;;5031390;28;20218;-80
2023/06/10 00:59:53;;;;;;;9.07;5.20;;;19.40;99.90;;;;;;5031800;28;20289;-79
2023/06/10 01:02:20;;;;;;;8.13;4.95;;;19.40;99.90;;;;;;5031361;28;20226;-78
2023/06/10 01:04:48;;;;;;;9.10;5.50;;;19.30;99.90;;;;;;5030992;28;20199;-79
2023/06/10 01:07:22;;;;;;;8.48;5.03;;;19.30;99.90;;;;;;5032013;28;20638;-78
2023/06/10 01:09:57;;;;;;;8.57;5.50;;;19.30;99.90;;;;;;5034830;28;20645;-77
2023/06/10 01:12:31;;;;;;;8.05;4.95;;;19.30;99.90;;;;;;5034890;28;20209;-80
2023/06/10 01:15:00;;;;;;;8.15;5.03;;;19.20;99.90;;;;;;5035449;28;20562;-79
2023/06/10 01:17:27;;;;;;;8.13;5.45;;;19.20;99.90;;;;;;5035764;28;20199;-78
2023/06/10 01:19:56;;;;;;;6.60;4.85;;;19.20;99.90;;;;;;5034690;28;20202;-79
2023/06/10 01:22:25;;;;;;;10.00;5.03;;;19.20;99.90;;;;;;5034896;28;20280;-80
2023/06/10 01:24:53;;;;;;;7.15;5.32;;;19.20;99.90;;;;;;5035562;28;20229;-79
2023/06/10 01:27:23;;;;;;;7.68;5.07;;;19.10;99.90;;;;;;5034440;28;20901;-79
2023/06/10 01:29:56;;;;;;;12.20;5.78;;;19.10;99.90;;;;;;5035853;28;20225;-79
2023/06/10 01:32:29;;;;;;;8.27;5.57;;;19.10;99.90;;;;;;5034883;28;20483;-77
2023/06/10 01:34:58;;;;;;;7.10;4.75;;;19.00;99.90;;;;;;5035158;28;20282;-79
2023/06/10 01:37:27;;;;;;;9.13;5.82;;;19.00;99.90;;;;;;5035175;28;20355;-78
2023/06/10 01:39:58;;;;;;;10.13;5.53;;;19.00;99.90;;;;;;5034127;28;20290;-78
2023/06/10 01:42:26;;;;;;;10.80;6.20;;;19.00;99.90;;;;;;5035276;28;20224;-79
2023/06/10 01:44:53;;;;;;;7.40;5.38;;;19.00;99.90;;;;;;5034800;28;20211;-80
2023/06/10 01:47:20;;;;;;;11.13;5.88;;;18.90;99.90;;;;;;5034326;28;20206;-79
2023/06/10 01:49:47;;;;;;;10.00;5.10;;;18.90;99.90;;;;;;5034535;28;20547;-79
2023/06/10 01:52:14;;;;;;;7.18;5.40;;;18.90;99.90;;;;;;5034899;28;20201;-79
2023/06/10 01:54:42;;;;;;;6.28;4.90;;;18.90;99.90;;;;;;5033682;28;20202;-78
2023/06/10 01:57:09;;;;;;;7.43;5.00;;;18.90;99.90;;;;;;5034829;28;20514;-79
2023/06/10 01:59:37;;;;;;;7.90;5.45;;;18.90;99.90;;;;;;5034819;28;20689;-79
2023/06/10 02:02:05;;;;;;;6.47;5.10;;;18.90;99.90;;;;;;5034025;28;20207;-79
2023/06/10 02:04:32;;;;;;;8.45;6.03;;;18.90;99.90;;;;;;5044884;28;20226;-80
2023/06/10 02:06:59;;;;;;;7.72;5.70;;;18.90;99.90;;;;;;5054443;28;20583;-79
2023/06/10 02:09:26;;;;;;;8.68;5.18;;;18.90;99.90;;;;;;5054244;28;20197;-77
2023/06/10 02:11:54;;;;;;;8.15;5.43;;;18.80;99.90;;;;;;5051679;28;20200;-79
2023/06/10 02:14:21;;;;;;;8.60;5.18;;;18.80;99.90;;;;;;5034274;28;20205;-78
2023/06/10 02:16:48;;;;;;;9.63;5.22;;;18.80;99.90;;;;;;5033805;28;20706;-78
2023/06/10 02:19:15;;;;;;;8.93;5.63;;;18.80;99.90;;;;;;5034147;28;20653;-81
2023/06/10 02:21:42;;;;;;;7.72;4.57;;;18.80;99.90;;;;;;5032852;28;20199;-79
2023/06/10 02:24:09;;;;;;;7.47;4.93;;;18.70;99.90;;;;;;5034328;28;20249;-76
2023/06/10 02:26:36;;;;;;;7.03;5.22;;;18.70;99.90;;;;;;5034487;28;20227;-76
2023/06/10 02:29:04;;;;;;;9.85;5.13;;;18.70;99.90;;;;;;5033401;28;20206;-76
2023/06/10 02:31:31;;;;;;;9.63;5.45;;;18.70;99.90;;;;;;5034662;28;20211;-78
2023/06/10 02:33:58;;;;;;;8.15;5.22;;;18.70;99.90;;;;;;5034020;28;20190;-77
2023/06/10 02:36:27;;;;;;;7.38;5.38;;;18.70;99.90;;;;;;5032769;28;20294;-77
2023/06/10 02:38:54;;;;;;;9.02;6.65;;;18.70;99.90;;;;;;5033720;28;20214;-77
2023/06/10 02:41:21;;;;;;;8.25;4.90;;;18.70;99.90;;;;;;5033816;28;20303;-80
2023/06/10 02:43:48;;;;;;;6.75;5.20;;;18.70;99.90;;;;;;5033351;28;20246;-78
2023/06/10 02:46:16;;;;;;;10.18;5.47;;;18.70;99.90;;;;;;5033750;28;20199;-80
2023/06/10 02:48:44;;;;;;;8.85;6.30;;;18.70;99.90;;;;;;5033380;28;20210;-79
2023/06/10 02:51:11;;;;;;;9.00;5.65;;;18.70;99.90;;;;;;5033506;28;20290;-77
2023/06/10 02:53:38;;;;;;;9.07;5.25;;;18.70;99.90;;;;;;5033931;28;20197;-78
2023/06/10 02:56:05;;;;;;;8.07;5.28;;;18.60;99.90;;;;;;5033844;28;20207;-78
2023/06/10 02:58:32;;;;;;;8.38;5.50;;;18.60;99.90;;;;;;5032716;28;20209;-78
2023/06/10 03:00:59;;;;;;;8.88;5.60;;;18.50;99.90;;;;;;5033510;28;20212;-76
2023/06/10 03:03:27;;;;;;;7.88;5.68;;;18.50;99.90;;;;;;5033113;28;20224;-79
2023/06/10 03:05:54;;;;;;;8.68;5.38;;;18.50;99.90;;;;;;5032791;28;20205;-78
2023/06/10 03:08:21;;;;;;;7.60;5.00;;;18.50;99.90;;;;;;5033724;28;20215;-77
2023/06/10 03:10:48;;;;;;;7.10;5.40;;;18.50;99.90;;;;;;5033751;28;20224;-80
2023/06/10 03:13:16;;;;;;;10.48;6.30;;;18.50;99.90;;;;;;5049393;28;20317;-80
2023/06/10 03:15:44;;;;;;;10.30;6.05;;;18.40;99.90;;;;;;5053298;28;20190;-80
2023/06/10 03:18:11;;;;;;;7.55;5.75;;;18.30;99.90;;;;;;5045096;28;20257;-78
2023/06/10 03:20:39;;;;;;;7.03;5.93;;;18.30;99.90;;;;;;5033162;28;20763;-80
2023/06/10 03:23:07;;;;;;;8.98;6.57;;;18.30;99.90;;;;;;5033558;28;20517;-77
2023/06/10 03:25:34;;;;;;;8.55;5.65;;;18.30;99.90;;;;;;5032048;28;20217;-79
2023/06/10 03:28:01;;;;;;;8.32;5.30;;;18.30;99.90;;;;;;5033132;28;20278;-80
2023/06/10 03:30:28;;;;;;;7.22;5.28;;;18.20;99.90;;;;;;5033460;28;20209;-79
2023/06/10 03:32:55;;;;;;;8.07;5.78;;;18.20;99.90;;;;;;5031710;28;20221;-79
2023/06/10 03:35:22;;;;;;;10.07;6.60;;;18.20;99.90;;;;;;5032724;28;20203;-79
2023/06/10 03:37:50;;;;;;;7.90;5.20;;;18.20;99.90;;;;;;5032642;28;20599;-80
2023/06/10 03:40:17;;;;;;;8.43;5.63;;;18.20;99.90;;;;;;5032377;28;20206;-79
2023/06/10 03:42:44;;;;;;;7.70;6.20;;;18.10;99.90;;;;;;5032771;28;20897;-78
2023/06/10 03:45:12;;;;;;;10.48;5.80;;;18.10;99.90;;;;;;5032540;28;20296;-80
2023/06/10 03:47:40;;;;;;;9.98;6.25;;;18.20;99.90;;;;;;5031981;28;20203;-80
2023/06/10 03:50:09;;;;;;;7.95;5.63;;;18.10;99.90;;;;;;5052593;28;20233;-80
2023/06/10 03:52:37;;;;;;;6.68;5.32;;;18.10;99.90;;;;;;5040998;28;20222;-79
2023/06/10 03:55:06;;;;;;;7.03;5.50;;;18.10;99.90;;;;;;5031987;28;20199;-80
2023/06/10 03:57:33;;;;;;;8.50;5.82;;;18.10;99.90;;;;;;5032734;28;20198;-81
2023/06/10 04:00:00;;;;;;;8.90;5.63;;;18.20;99.90;;;;;;5032811;28;20199;-80
2023/06/10 04:02:27;;;;;;;10.32;5.93;;;18.20;99.90;;;;;;5032268;28;20222;-79
2023/06/10 04:04:54;;;;;;;8.88;5.57;;;18.10;99.90;;;;;;5033482;28;20297;-80
2023/06/10 04:07:21;;;;;;;11.77;6.35;;;18.20;99.90;;;;;;5051833;28;20376;-79
2023/06/10 04:09:48;;;;;;;10.20;6.10;;;18.20;99.90;;;;;;5052142;28;20605;-79
2023/06/10 04:12:16;;;;;;;10.68;6.25;;;18.20;99.90;;;;;;5048048;28;20203;-79
2023/06/10 04:14:43;;;;;;;5.97;4.80;;;18.20;99.90;;;;;;5031507;28;20194;-79
2023/06/10 04:17:10;;;;;;;9.25;6.03;;;18.30;99.90;;;;;;5032472;28;20253;-79
2023/06/10 04:19:37;;;;;;;7.60;5.35;;;18.30;99.90;;;;;;5032585;28;20195;-80
2023/06/10 04:22:05;;;;;;;10.38;6.15;;;18.30;99.90;;;;;;5031505;28;20280;-80
2023/06/10 04:24:32;;;;;;;6.43;5.30;;;18.30;99.90;;;;;;5031851;28;20321;-81
2023/06/10 04:26:58;;;;;;;9.35;6.35;;;18.40;99.90;;;;;;5032517;28;20203;-79
2023/06/10 04:29:27;;;;;;;9.25;6.38;;;18.40;99.90;;;;;;5031366;28;20473;-80
2023/06/10 04:31:53;;;;;;;6.72;5.28;;;18.50;99.90;;;;;;5032007;28;20195;-79
2023/06/10 04:34:20;;;;;;;9.13;6.22;;;18.50;99.90;;;;;;5031891;28;20213;-81
2023/06/10 04:36:47;;;;;;;7.60;5.57;;;18.60;99.90;;;;;;5031266;28;20208;-79
2023/06/10 04:39:16;;;;;;;6.22;5.20;;;18.60;99.90;;;;;;5032101;28;20526;-79
2023/06/10 04:41:43;;;;;;;6.97;5.95;;;18.60;99.90;;;;;;5032145;28;20219;-80
2023/06/10 04:44:10;;;;;;;8.48;6.15;;;18.60;99.90;;;;;;5033453;28;20280;-80
2023/06/10 04:46:39;;;;;;;8.43;6.18;;;18.60;99.90;;;;;;5036653;28;20206;-78
2023/06/10 04:49:05;;;;;;;8.25;6.35;;;18.60;99.90;;;;;;5036020;28;20284;-81
2023/06/10 04:51:32;;;;;;;6.80;5.95;;;18.70;99.90;;;;;;5035614;28;20276;-80
2023/06/10 04:54:02;;;;;;;9.95;6.20;;;18.80;99.90;;;;;;5035788;28;20242;-80
2023/06/10 04:56:29;;;;;;;7.25;5.50;;;18.80;99.90;;;;;;5035580;28;20238;-79
2023/06/10 04:58:56;;;;;;;9.70;5.97;;;19.00;99.90;;;;;;5037027;28;20190;-78
2023/06/10 05:01:23;;;;;;;6.57;5.72;;;19.30;99.90;;;;;;5036567;28;20210;-77
2023/06/10 05:03:52;;;;;;;10.40;6.53;;;19.60;99.90;;;;;;5035228;28;20306;-76
2023/06/10 05:06:18;;;;;;;7.72;5.57;;;19.90;99.90;;;;;;5035418;28;20603;-77
2023/06/10 05:08:45;;;;;;;7.28;5.68;;;20.20;99.90;;;;;;5035942;28;20197;-77
2023/06/10 05:11:12;;;;;;;8.75;5.63;;;20.40;99.90;;;;;;5035361;28;20206;-77
2023/06/10 05:13:39;;;;;;;7.07;5.70;;;20.70;99.90;;;;;;5035411;28;20622;-76
2023/06/10 05:16:07;;;;;;;7.65;5.75;;;21.00;99.90;;;;;;5035420;28;20595;-77
2023/06/10 05:18:35;;;;;;;9.43;6.45;;;21.20;99.90;;;;;;5034686;28;20199;-79
2023/06/10 05:21:03;;;;;;;9.13;6.20;;;21.40;99.90;;;;;;5035724;28;20317;-80
2023/06/10 05:23:30;;;;;;;7.70;5.32;;;21.50;99.90;;;;;;5035089;28;20601;-78
2023/06/10 05:25:58;;;;;;;6.78;5.20;;;21.70;99.90;;;;;;5034385;28;20194;-79
2023/06/10 05:28:25;;;;;;;6.00;5.13;;;22.00;99.90;;;;;;5035340;28;20297;-81
2023/06/10 05:30:52;;;;;;;8.77;5.55;;;22.30;99.90;;;;;;5035083;28;20210;-79
2023/06/10 05:33:19;;;;;;;9.35;5.38;;;22.50;99.90;;;;;;5034606;28;20199;-82
2023/06/10 05:35:46;;;;;;;8.77;5.63;;;22.70;99.90;;;;;;5035258;28;20340;-79
2023/06/10 05:38:14;;;;;;;9.55;5.68;;;22.80;99.90;;;;;;5035198;28;20206;-78
2023/06/10 05:40:41;;;;;;;6.45;4.60;;;22.90;99.90;;;;;;5034623;28;20219;-79
2023/06/10 05:43:09;;;;;;;6.75;4.88;;;23.20;99.90;;;;;;5034992;28;20220;-79
2023/06/10 05:45:36;;;;;;;7.00;5.30;;;23.40;99.90;;;;;;5033830;28;20288;-79
2023/06/10 05:48:03;;;;;;;7.70;5.25;;;23.50;99.90;;;;;;5034975;28;20198;-79
2023/06/10 05:50:30;;;;;;;7.03;5.00;;;23.70;99.90;;;;;;5034716;28;20240;-77
2023/06/10 05:52:57;;;;;;;5.47;4.63;;;23.70;99.90;;;;;;5033809;28;20199;-80
2023/06/10 05:55:26;;;;;;;7.95;5.18;;;23.80;99.90;;;;;;5034963;28;20502;-79
2023/06/10 05:58:00;;;;;;;8.80;5.22;;;24.10;99.90;;;;;;5034735;28;20513;-81
2023/06/10 06:00:27;;;;;;;9.10;5.22;;;24.30;99.90;;;;;;5034041;28;20240;-79
2023/06/10 06:02:57;;;;;;;8.43;5.32;;;24.60;99.90;;;;;;5034195;28;20194;-79
2023/06/10 06:05:24;;;;;;;11.65;5.78;;;24.90;99.90;;;;;;5034548;28;20222;-78
2023/06/10 06:07:50;;;;;;;7.32;5.22;;;24.80;99.90;;;;;;5034432;28;20205;-78
2023/06/10 06:10:18;;;;;;;5.95;5.20;;;24.60;99.90;;;;;;5034623;28;20202;-80
2023/06/10 06:12:47;;;;;;;6.30;5.03;;;24.50;99.90;;;;;;5034477;28;20282;-81
2023/06/10 06:15:13;;;;;;;8.15;5.18;;;24.60;99.90;;;;;;5033862;28;20595;-81
2023/06/10 06:17:40;;;;;;;7.20;4.72;;;24.80;99.90;;;;;;5033934;28;20205;-80
2023/06/10 06:20:08;;;;;;;6.28;5.00;;;24.90;99.90;;;;;;5034114;28;20595;-80
2023/06/10 06:22:35;;;;;;;7.00;5.38;;;25.10;99.90;;;;;;5033932;28;20210;-79
2023/06/10 06:25:02;;;;;;;8.88;5.05;;;25.10;99.90;;;;;;5033857;28;20227;-81
2023/06/10 06:27:29;;;;;;;7.28;5.32;;;25.10;99.90;;;;;;5034377;28;20203;-81
2023/06/10 06:29:57;;;;;;;8.98;5.50;;;25.30;99.90;;;;;;5039366;28;20266;-81
2023/06/10 06:32:27;;;;;;;6.40;4.35;;;25.70;99.90;;;;;;5034817;28;20281;-78
2023/06/10 06:34:54;;;;;;;6.20;4.85;;;25.90;99.90;;;;;;5033995;28;20198;-81
2023/06/10 06:37:23;;;;;;;7.68;5.47;;;26.00;99.90;;;;;;5034232;28;20203;-82
2023/06/10 06:39:51;;;;;;;8.32;4.82;;;26.00;99.90;;;;;;5033758;28;20598;-81
2023/06/10 06:42:18;;;;;;;7.32;5.32;;;26.10;99.90;;;;;;5033808;28;20222;-84
2023/06/10 06:44:45;;;;;;;6.03;4.60;;;26.30;99.90;;;;;;5033931;28;20218;-84
2023/06/10 06:47:14;;;;;;;6.88;5.10;;;26.30;99.90;;;;;;5033531;28;20477;-77
2023/06/10 06:49:40;;;;;;;6.93;5.10;;;26.30;99.90;;;;;;5032574;28;20231;-80
2023/06/10 06:52:08;;;;;;;8.77;5.18;;;26.50;99.90;;;;;;5034132;28;20302;-79
2023/06/10 06:54:36;;;;;;;5.78;4.75;;;26.70;99.90;;;;;;5033651;28;20199;-81
2023/06/10 06:57:03;;;;;;;5.45;4.30;;;26.50;99.90;;;;;;5032816;28;20673;-80
2023/06/10 06:59:30;;;;;;;7.18;5.32;;;26.50;99.90;;;;;;5033288;28;20524;-81
2023/06/10 07:01:56;;;;;;;6.43;4.30;;;26.60;99.90;;;;;;5033647;28;20202;-81
2023/06/10 07:04:25;;;;;;;7.47;5.15;;;26.80;99.90;;;;;;5032864;28;20527;-80
2023/06/10 07:06:52;;;;;;;7.50;5.22;;;27.00;99.90;;;;;;5032478;28;20286;-79
2023/06/10 07:09:18;;;;;;;7.07;5.03;;;26.80;99.90;;;;;;5041151;28;20210;-80
2023/06/10 07:22:07;;;;;;;7.05;5.55;;;27.40;99.90;;;;;;4973616;28;20225;-80
2023/06/10 07:24:33;;;;;;;7.75;5.50;;;27.50;99.90;;;;;;5050919;28;20229;-82
2023/06/10 07:27:00;;;;;;;9.55;5.80;;;27.40;99.90;;;;;;5044650;28;20536;-78
2023/06/10 07:29:27;;;;;;;6.47;4.95;;;27.20;99.90;;;;;;5047992;28;20606;-81
2023/06/10 07:31:54;;;;;;;7.15;5.45;;;27.10;99.90;;;;;;5050982;28;20221;-80
2023/06/10 07:34:21;;;;;;;8.40;5.05;;;26.90;99.90;;;;;;5040459;28;20198;-82
2023/06/10 07:40:10;;;;;;;7.93;5.47;;;26.80;99.90;;;;;;4999905;28;20614;-78
2023/06/10 07:42:37;;;;;;;9.20;5.63;;;26.90;99.90;;;;;;5031187;28;20298;-78
2023/06/10 07:45:05;;;;;;;6.60;5.22;;;27.00;99.90;;;;;;5031810;28;20218;-76
2023/06/10 07:47:34;;;;;;;11.45;6.05;;;26.80;99.90;;;;;;5031350;28;20287;-78
2023/06/10 07:50:01;;;;;;;5.72;4.97;;;26.90;99.90;;;;;;5036802;28;20226;-78
2023/06/10 07:52:28;;;;;;;12.07;5.22;;;26.90;99.90;;;;;;5035369;28;20198;-81
2023/06/10 07:54:55;;;;;;;8.13;5.25;;;27.00;99.90;;;;;;5032145;28;20610;-83
2023/06/10 07:57:23;;;;;;;8.68;5.55;;;27.20;99.90;;;;;;5032490;28;20206;-79
2023/06/10 07:59:50;;;;;;;10.38;5.00;;;27.40;99.90;;;;;;5052804;28;20283;-79
2023/06/10 08:02:17;;;;;;;8.13;5.78;;;27.50;99.90;;;;;;5052446;28;20225;-84
2023/06/10 08:04:44;;;;;;;6.80;4.97;;;27.50;99.90;;;;;;5051830;28;20648;-80
2023/06/10 08:07:11;;;;;;;10.02;5.38;;;27.50;99.90;;;;;;5045305;28;20229;-82
2023/06/10 08:09:38;;;;;;;9.07;5.45;;;27.80;99.90;;;;;;5051477;28;20624;-78
2023/06/10 08:12:06;;;;;;;6.53;5.05;;;28.10;99.90;;;;;;5040245;28;20581;-79
2023/06/10 08:14:34;;;;;;;7.55;5.53;;;28.10;99.90;;;;;;5031703;28;20212;-78
2023/06/10 08:17:01;;;;;;;9.70;5.53;;;28.10;99.90;;;;;;5032033;28;20212;-80
2023/06/10 08:19:28;;;;;;;7.72;6.07;;;28.10;99.90;;;;;;5032516;28;20198;-81
2023/06/10 08:21:55;;;;;;;5.78;5.03;;;28.20;99.90;;;;;;5031339;28;20217;-79
2023/06/10 08:24:22;;;;;;;7.97;5.70;;;28.20;99.90;;;;;;5031981;28;20206;-79
2023/06/10 08:26:48;;;;;;;7.65;5.50;;;28.10;99.90;;;;;;5032129;28;20202;-79
2023/06/10 08:29:15;;;;;;;9.77;6.55;;;28.20;99.90;;;;;;5030966;28;20674;-77
2023/06/10 08:31:45;;;;;;;8.20;5.45;;;28.20;99.90;;;;;;5031971;28;20292;-77
2023/06/10 08:34:12;;;;;;;7.50;5.40;;;28.40;99.90;;;;;;5031870;28;20221;-78
2023/06/10 08:36:39;;;;;;;5.88;5.00;;;28.40;99.90;;;;;;5030987;28;20285;-78
2023/06/10 08:39:06;;;;;;;9.35;5.85;;;28.60;99.90;;;;;;5031882;28;20314;-80
2023/06/10 08:41:38;;;;;;;8.80;5.38;;;28.60;99.90;;;;;;5030515;28;20652;-79
2023/06/10 08:44:10;;;;;;;6.15;4.97;;;28.40;99.90;;;;;;5032035;28;20194;-79
2023/06/10 08:46:38;;;;;;;7.38;5.10;;;28.40;99.90;;;;;;5031559;28;20213;-77
2023/06/10 08:49:08;;;;;;;7.10;4.75;;;28.50;99.90;;;;;;5030833;28;20234;-77
2023/06/10 08:51:37;;;;;;;9.63;5.05;;;28.80;99.90;;;;;;5031279;28;20482;-78
2023/06/10 08:54:12;;;;;;;7.93;5.10;;;29.30;99.90;;;;;;5031500;28;20218;-78
2023/06/10 08:56:41;;;;;;;7.85;5.68;;;29.40;99.90;;;;;;5031003;28;20386;-81
2023/06/10 08:59:09;;;;;;;6.43;5.22;;;29.20;99.90;;;;;;5031364;28;20552;-80
2023/06/10 09:01:37;;;;;;;6.90;4.75;;;29.30;99.90;;;;;;5031165;28;20209;-80
2023/06/10 09:04:06;;;;;;;8.43;4.88;;;29.40;99.90;;;;;;5030826;28;20506;-78
2023/06/10 09:06:37;;;;;;;7.45;4.75;;;29.40;99.90;;;;;;5030450;28;20221;-80
2023/06/10 09:09:06;;;;;;;6.90;6.03;;;29.60;99.90;;;;;;5030651;28;20202;-78
2023/06/10 09:11:33;;;;;;;8.65;5.30;;;29.50;99.90;;;;;;5030810;28;20502;-76
2023/06/10 09:14:00;;;;;;;8.00;5.00;;;29.20;99.90;;;;;;5030983;28;20317;-81
2023/06/10 09:16:27;;;;;;;8.07;5.72;;;29.20;99.90;;;;;;5031406;28;20669;-79
2023/06/10 09:18:55;;;;;;;7.80;5.82;;;29.20;99.90;;;;;;5030914;28;20405;-79
2023/06/10 09:21:23;;;;;;;8.55;5.32;;;29.30;99.90;;;;;;5031293;28;20207;-80
2023/06/10 09:23:51;;;;;;;8.10;5.28;;;29.10;99.90;;;;;;5030629;28;20214;-79
2023/06/10 09:26:19;;;;;;;6.35;4.90;;;29.00;99.90;;;;;;5031429;28;20229;-80
2023/06/10 09:28:48;;;;;;;8.27;5.65;;;29.30;99.90;;;;;;5031408;28;20221;-79
2023/06/10 09:31:19;;;;;;;7.38;5.22;;;29.50;99.90;;;;;;5034762;28;20213;-78
2023/06/10 09:33:46;;;;;;;5.88;4.82;;;29.50;99.90;;;;;;5034815;28;20210;-80
2023/06/10 09:36:24;;;;;;;7.47;5.18;;;29.60;99.90;;;;;;5034945;28;20444;-80
2023/06/10 09:38:51;;;;;;;7.93;5.20;;;29.40;99.90;;;;;;5034860;28;20186;-80
2023/06/10 09:41:18;;;;;;;8.00;4.90;;;29.30;99.90;;;;;;5034591;28;20225;-81
2023/06/10 09:43:48;;;;;;;7.45;5.40;;;29.30;99.90;;;;;;5035014;28;20190;-80
2023/06/10 09:46:17;;;;;;;8.10;4.88;;;29.40;99.90;;;;;;5034336;28;20222;-81
2023/06/10 09:48:45;;;;;;;7.53;4.60;;;29.20;99.90;;;;;;5035016;28;20217;-79
2023/06/10 09:51:13;;;;;;;9.02;5.65;;;29.10;99.90;;;;;;5035188;28;20198;-81
2023/06/10 09:53:41;;;;;;;8.43;5.80;;;29.20;99.90;;;;;;5034379;28;20206;-80
2023/06/10 09:56:08;;;;;;;10.10;5.03;;;29.10;99.90;;;;;;5034449;28;20203;-81
2023/06/10 09:58:37;;;;;;;7.50;4.75;;;29.10;99.90;;;;;;5035049;28;20293;-82
2023/06/10 10:01:06;;;;;;;8.25;5.53;;;29.00;99.90;;;;;;5034087;28;20441;-80
2023/06/10 10:03:33;;;;;;;6.32;4.60;;;28.80;99.90;;;;;;5035305;28;20286;-80
2023/06/10 10:06:01;;;;;;;6.90;5.10;;;28.60;99.90;;;;;;5033789;28;20881;-80
2023/06/10 10:08:28;;;;;;;12.52;4.78;;;28.60;99.90;;;;;;5034516;28;20187;-80
2023/06/10 10:10:58;;;;;;;8.43;5.10;;;28.80;99.90;;;;;;5034542;28;20202;-81
2023/06/10 10:13:28;;;;;;;7.88;4.75;;;28.90;99.90;;;;;;5034428;28;20205;-78
2023/06/10 10:15:57;;;;;;;7.80;4.70;;;28.90;99.90;;;;;;5034340;28;20217;-83
2023/06/10 10:18:30;;;;;;;7.03;4.72;;;29.20;99.90;;;;;;5034269;28;20210;-79
2023/06/10 10:20:58;;;;;;;4.93;3.92;;;29.40;99.90;;;;;;5033942;28;20551;-85
2023/06/10 10:23:30;;;;;;;6.47;4.65;;;29.40;99.90;;;;;;5035201;28;20203;-83
2023/06/10 10:26:05;;;;;;;4.90;4.18;;;29.90;99.90;;;;;;5035010;28;20218;-84
2023/06/10 10:28:38;;;;;;;6.10;4.20;;;30.20;99.90;;;;;;5033996;28;20224;-82
2023/06/10 10:31:11;;;;;;;6.78;4.32;;;30.30;99.90;;;;;;5035116;28;20199;-85
2023/06/10 10:33:46;;;;;;;8.73;4.60;;;30.20;99.90;;;;;;5034811;28;20256;-79
2023/06/10 10:36:14;;;;;;;7.97;4.57;;;30.10;99.90;;;;;;5034832;28;20208;-86
2023/06/10 10:38:42;;;;;;;6.40;4.25;;;30.30;99.90;;;;;;5035231;28;20198;-82
2023/06/10 10:41:12;;;;;;;6.43;4.20;;;30.60;99.90;;;;;;5033333;28;20261;-84
2023/06/10 10:43:39;;;;;;;5.45;4.38;;;30.80;99.90;;;;;;5035547;28;20658;-85
2023/06/10 10:46:15;;;;;;;7.90;4.70;;;31.10;99.90;;;;;;5034980;28;20306;-84
2023/06/10 10:48:44;;;;;;;7.55;5.05;;;30.80;99.90;;;;;;5033903;28;20234;-83
2023/06/10 10:51:11;;;;;;;6.38;4.45;;;30.60;99.90;;;;;;5033920;28;20217;-85
2023/06/10 10:53:39;;;;;;;8.30;4.88;;;30.10;99.90;;;;;;5033921;28;20477;-78
2023/06/10 10:56:07;;;;;;;7.38;4.43;;;30.00;99.90;;;;;;5032373;28;20260;-80
2023/06/10 10:58:36;;;;;;;6.22;4.45;;;30.10;99.90;;;;;;5033613;28;20199;-80
2023/06/10 11:01:12;;;;;;;9.48;4.93;;;29.80;99.90;;;;;;5034683;28;20216;-78
2023/06/10 11:03:45;;;;;;;8.63;4.60;;;30.00;99.90;;;;;;5033508;28;20187;-78
2023/06/10 11:06:14;;;;;;;6.00;4.47;;;30.30;99.90;;;;;;5033450;28;20206;-79
2023/06/10 11:08:48;;;;;;;7.05;4.38;;;30.20;99.90;;;;;;5052473;28;20209;-79
2023/06/10 11:11:22;;;;;;;4.95;4.15;;;30.20;99.90;;;;;;5040101;28;20214;-81
2023/06/10 11:14:27;;;;;;;5.57;4.40;;;30.20;99.90;;;;;;5033558;28;20723;-78
2023/06/10 11:16:58;;;;;;;9.68;4.78;;;30.10;99.90;;;;;;5022865;28;20198;-80
2023/06/10 11:19:35;;;;;;;8.25;4.32;;;30.00;99.90;;;;;;5049054;28;20272;-82
2023/06/10 11:22:04;;;;;;;6.10;4.00;;;30.20;99.90;;;;;;5053443;28;20292;-80
2023/06/10 11:24:31;;;;;;;6.53;4.13;;;30.10;99.90;;;;;;5053026;28;20194;-81
2023/06/10 11:27:17;;;;;;;5.03;3.90;;;30.00;99.90;;;;;;5049996;28;20229;-82
2023/06/10 11:30:12;;;;;;;4.93;3.67;;;29.90;99.90;;;;;;5033662;28;20191;-80
2023/06/10 11:32:39;;;;;;;8.82;4.22;;;30.10;99.90;;;;;;5031426;28;20286;-81
2023/06/10 11:35:09;;;;;;;6.55;4.30;;;30.20;99.90;;;;;;5032788;28;20297;-79
2023/06/10 11:37:35;;;;;;;5.82;4.50;;;30.20;99.90;;;;;;5032059;28;20294;-79
2023/06/10 11:40:03;;;;;;;6.30;3.83;;;30.10;99.90;;;;;;5032876;28;20195;-79
2023/06/10 11:42:30;;;;;;;4.03;3.60;;;30.10;99.90;;;;;;5032201;28;20230;-78
2023/06/10 11:45:02;;;;;;;5.43;4.10;;;30.40;99.90;;;;;;5031990;28;20285;-78
2023/06/10 11:47:29;;;;;;;6.90;4.70;;;30.30;99.90;;;;;;5032736;28;20206;-78
2023/06/10 11:49:57;;;;;;;6.75;3.70;;;30.60;99.90;;;;;;5032393;28;20234;-82
2023/06/10 11:52:27;;;;;;;5.53;3.83;;;30.80;99.90;;;;;;5032404;28;20286;-82
2023/06/10 11:54:55;;;;;;;9.32;4.15;;;30.80;99.90;;;;;;5033571;28;20210;-82
2023/06/10 11:57:21;;;;;;;6.95;3.85;;;31.00;99.90;;;;;;5033698;28;20191;-82
2023/06/10 11:59:48;;;;;;;5.93;4.15;;;31.20;99.90;;;;;;5032318;28;20791;-84
2023/06/10 12:02:18;;;;;;;8.63;4.28;;;31.40;99.90;;;;;;5033450;28;20187;-88
2023/06/10 12:04:45;;;;;;;5.55;3.70;;;31.40;99.90;;;;;;5035739;28;20199;-85
2023/06/10 12:07:18;;;;;;;6.18;3.92;;;31.30;99.90;;;;;;5052541;28;20217;-83
2023/06/10 12:09:45;;;;;;;6.75;4.25;;;31.30;99.90;;;;;;5053285;28;20245;-87
2023/06/10 12:12:12;;;;;;;8.18;4.45;;;31.20;99.90;;;;;;5053526;28;20241;-81
2023/06/10 12:14:54;;;;;;;5.47;3.95;;;31.00;99.90;;;;;;5044886;28;20504;-83
2023/06/10 12:17:24;;;;;;;3.88;3.50;;;31.00;99.90;;;;;;5032656;28;20201;-82
2023/06/10 12:19:51;;;;;;;5.85;4.40;;;30.90;99.90;;;;;;5033328;28;20206;-82
2023/06/10 12:22:19;;;;;;;7.60;3.90;;;30.80;99.90;;;;;;5032948;28;20658;-83
2023/06/10 12:24:46;;;;;;;6.57;4.30;;;30.80;99.90;;;;;;5033434;28;20195;-82
2023/06/10 12:27:13;;;;;;;5.15;4.10;;;30.80;99.90;;;;;;5032095;28;20706;-85
2023/06/10 12:29:51;;;;;;;5.53;3.83;;;30.50;99.90;;;;;;5033472;28;20290;-84
2023/06/10 12:32:20;;;;;;;4.50;3.67;;;30.70;99.90;;;;;;5033555;28;20206;-83
2023/06/10 12:34:48;;;;;;;6.25;3.42;;;31.10;99.90;;;;;;5032493;28;20202;-82
2023/06/10 12:37:15;;;;;;;5.15;3.78;;;31.40;99.90;;;;;;5052620;28;20198;-79
2023/06/10 12:39:42;;;;;;;6.55;4.00;;;31.60;99.90;;;;;;5032845;28;20214;-80
2023/06/10 12:42:10;;;;;;;5.57;3.78;;;31.50;99.90;;;;;;5047275;28;20233;-83
2023/06/10 12:44:40;;;;;;;7.80;3.97;;;31.40;99.90;;;;;;5052530;28;20228;-83
2023/06/10 12:47:13;;;;;;;5.50;4.00;;;31.40;99.90;;;;;;5049963;28;20301;-80
2023/06/10 12:49:40;;;;;;;7.47;4.05;;;31.10;99.90;;;;;;5052963;28;20264;-79
2023/06/10 12:52:08;;;;;;;5.65;4.20;;;31.10;99.90;;;;;;5044130;28;20208;-81
2023/06/10 12:54:36;;;;;;;4.93;3.53;;;31.00;99.90;;;;;;5047808;28;20212;-82
2023/06/10 12:57:03;;;;;;;6.07;3.53;;;31.00;99.90;;;;;;5048605;28;20285;-82
2023/06/10 12:59:31;;;;;;;11.68;4.10;;;31.10;99.90;;;;;;5050580;28;20209;-82
2023/06/10 13:01:58;;;;;;;5.43;3.60;;;31.20;99.90;;;;;;5046246;28;20265;-81
2023/06/10 13:04:27;;;;;;;5.25;4.00;;;31.40;99.90;;;;;;5055205;28;20205;-80